Ans, Belgium

5:27 PM CEST on July 30, 2015 (GMT +0200)
Liege | | Change Station
CLOSE
Current Station
Airport
Location: Bierset,
Elevation: 614 ft
Nearby Weather Stations

Elev 614 ft 50.65 °N, 5.45 °E | Updated 7 minutes ago

Partly Cloudy
Partly Cloudy
63 °F
Feels Like 63 °F
N
6
Wind Variable Wind from West

Today
High -- | Low -- °F
--% Chance of Precip.
Yesterday
High -- | Low -- °F
Precip. -- in
6:01 AM 9:26 PM
Waxing Gibbous, 99% visible
Pressure 30.04 in
Visibility 6.2 miles
Clouds Few 3000 ft
Dew Point 45 °F
Humidity 52%
Rainfall 0.00 in
Snow Depth Not available.
UV 4 out of 12
Pollen Not available.
Air Quality Not available.
Flu Activity Not available.
METAR EBLG 301520Z 26005KT 220V310 9999 FEW030 17/07 Q1017 TEMPO 4000 SHRA

More Conditions Fewer Conditions

Pressure 30.04 in
Visibility 6.2 miles
Clouds Few 3000 ft
Dew Point 45 °F
Humidity 52%
Rainfall 0.00 in
Snow Depth Not available.
UV 4 out of 12
Pollen Not available.
Air Quality Not available.
Flu Activity Not available.
METAR EBLG 301520Z 26005KT 220V310 9999 FEW030 17/07 Q1017 TEMPO 4000 SHRA

More Conditions Fewer Conditions

10-Day Weather Forecast

×

Almanac

Astronomy

Jul. 30, 2015 Rise Set
Actual Time
Civil Twilight
Nautical Twilight
Astronomical Twilight
Moon
Length of Visible Light
Length of Day
Tomorrow will be .
, % of the Moon is Illuminated

Today's Extremes

Country Highs Country Lows

Community

WunderPhotos

Upload Photos

1,842,403 photos uploaded!

WunderBlogs® & News

Nearby

Air Quality

  Air Quality AQ Index Pollutant
Not available.

Snow Depth

Station Depth Elevation

Earthquake Activity

City Distance Mag. Time & Date
Minimum magnitude displayed is 2.5.

Coastal Water Temperatures

Place Temperature

Stations

Nearby Weather Stations

Station Location Temp. Windchill Dew Point Humidity Wind Precip. Elev Updated Type